createdAt,value
2018-07-06T00:01:39.186Z,3.70
2018-07-06T00:04:14.034Z,3.40
2018-07-06T00:06:48.424Z,3.97
2018-07-06T00:19:07.137Z,3.93
2018-07-06T00:21:41.013Z,4.00
2018-07-06T00:24:17.024Z,4.40
2018-07-06T00:26:51.024Z,4.17
2018-07-06T00:29:25.596Z,4.20
2018-07-06T00:31:59.733Z,4.33
2018-07-06T00:34:34.462Z,4.80
2018-07-06T00:37:08.895Z,4.17
2018-07-06T00:39:43.033Z,4.10
2018-07-06T00:42:17.686Z,4.00
2018-07-06T00:44:51.897Z,4.30
2018-07-06T00:47:26.268Z,4.30
2018-07-06T00:50:00.534Z,4.33
2018-07-06T00:52:34.665Z,4.10
2018-07-06T00:55:08.840Z,4.40
2018-07-06T00:57:58.114Z,4.03
2018-07-06T01:00:33.970Z,3.87
2018-07-06T01:03:10.126Z,4.07
2018-07-06T01:05:45.688Z,4.00
2018-07-06T01:21:15.725Z,4.73
2018-07-06T01:23:52.207Z,4.40
2018-07-06T01:26:27.309Z,4.60
2018-07-06T01:29:01.703Z,5.03
2018-07-06T01:31:36.427Z,4.77
2018-07-06T01:34:11.519Z,5.50
2018-07-06T01:36:46.015Z,5.20
2018-07-06T01:39:21.686Z,5.10
2018-07-06T01:41:57.355Z,4.60
2018-07-06T01:44:32.252Z,5.90
2018-07-06T01:47:08.401Z,4.70
2018-07-06T01:49:42.938Z,4.83
2018-07-06T01:52:18.387Z,6.10
2018-07-06T01:54:53.403Z,5.97
2018-07-06T01:57:28.953Z,6.40
2018-07-06T02:00:04.689Z,6.20
2018-07-06T02:02:38.987Z,6.30
2018-07-06T02:05:12.955Z,7.57
2018-07-06T02:07:50.653Z,7.83
2018-07-06T02:33:01.554Z,6.80
2018-07-06T02:35:35.663Z,6.90
2018-07-06T02:38:12.023Z,6.83
2018-07-06T02:40:45.764Z,6.27
2018-07-06T02:43:19.798Z,6.37
2018-07-06T02:45:53.917Z,5.20
2018-07-06T02:48:28.478Z,5.77
2018-07-06T02:51:03.458Z,5.67
2018-07-06T02:53:37.865Z,5.47
2018-07-06T03:05:53.799Z,5.13
2018-07-06T03:08:28.669Z,4.50
2018-07-06T03:11:02.800Z,4.37
2018-07-06T03:13:37.338Z,4.50
2018-07-06T03:16:12.378Z,4.70
2018-07-06T03:18:47.475Z,4.20
2018-07-06T03:21:21.749Z,3.80
2018-07-06T03:23:56.110Z,3.87
2018-07-06T03:26:32.168Z,3.47
2018-07-06T03:29:06.176Z,4.20
2018-07-06T03:31:40.297Z,4.03
2018-07-06T03:47:10.632Z,4.57
2018-07-06T03:49:44.699Z,4.30
2018-07-06T03:52:22.160Z,4.20
2018-07-06T03:54:56.854Z,4.77
2018-07-06T03:57:32.119Z,3.97
2018-07-06T04:00:07.612Z,3.80
2018-07-06T04:02:42.594Z,3.90
2018-07-06T04:05:18.291Z,4.63
2018-07-06T04:07:52.612Z,4.10
2018-07-06T04:10:28.643Z,4.17
2018-07-06T04:13:05.538Z,4.40
2018-07-06T04:15:40.021Z,5.10
2018-07-06T04:18:16.084Z,4.50
2018-07-06T04:21:54.072Z,4.73
2018-07-06T04:24:29.160Z,4.33
2018-07-06T04:27:03.919Z,6.30
2018-07-06T04:29:39.652Z,5.17
2018-07-06T04:32:14.746Z,5.70
2018-07-06T04:47:43.817Z,4.63
2018-07-06T04:50:18.758Z,5.00
2018-07-06T04:52:52.472Z,5.90
2018-07-06T04:55:30.025Z,4.80
2018-07-06T04:58:05.520Z,6.13
2018-07-06T05:00:41.100Z,6.13
2018-07-06T05:03:17.167Z,6.10
2018-07-06T05:05:55.575Z,5.37
2018-07-06T05:08:33.671Z,5.37
2018-07-06T05:11:07.952Z,5.80
2018-07-06T05:13:42.959Z,5.13
2018-07-06T05:16:20.492Z,5.87
2018-07-06T05:18:55.300Z,4.47
2018-07-06T05:21:29.409Z,5.20
2018-07-06T05:24:06.243Z,5.77
2018-07-06T05:42:51.271Z,5.90
2018-07-06T05:45:26.748Z,5.80
2018-07-06T05:48:03.019Z,6.30
2018-07-06T05:50:39.420Z,5.93
2018-07-06T05:53:14.936Z,5.90
2018-07-06T05:55:50.095Z,6.87
2018-07-06T05:58:25.839Z,5.80
2018-07-06T06:01:03.400Z,6.43
2018-07-06T06:03:38.832Z,6.47
2018-07-06T06:06:14.571Z,6.13
2018-07-06T06:08:45.021Z,6.10
2018-07-06T06:11:15.220Z,6.73
2018-07-06T06:13:46.611Z,6.40
2018-07-06T06:16:17.444Z,6.37
2018-07-06T06:18:51.197Z,7.00
2018-07-06T06:21:22.333Z,7.07
2018-07-06T06:23:53.555Z,7.07
2018-07-06T06:26:32.351Z,6.17
2018-07-06T06:29:01.800Z,6.57
2018-07-06T06:31:32.320Z,6.90
2018-07-06T06:34:04.837Z,6.80
2018-07-06T06:36:37.826Z,7.20
2018-07-06T06:39:09.544Z,6.60
2018-07-06T06:41:39.624Z,6.77
2018-07-06T06:44:11.607Z,5.93
2018-07-06T06:46:46.663Z,6.50
2018-07-06T06:49:17.976Z,6.73
2018-07-06T06:51:50.241Z,6.40
2018-07-06T06:54:21.894Z,6.20
2018-07-06T06:56:53.388Z,7.30
2018-07-06T06:59:23.596Z,7.13
2018-07-06T07:01:55.270Z,6.63
2018-07-06T07:04:27.157Z,8.80
2018-07-06T07:06:58.921Z,7.47
2018-07-06T07:09:29.861Z,7.83
2018-07-06T07:11:59.590Z,7.90
2018-07-06T07:14:30.802Z,7.63
2018-07-06T07:17:01.640Z,7.70
2018-07-06T07:19:33.338Z,7.30
2018-07-06T07:22:07.294Z,6.50
2018-07-06T07:34:25.784Z,4.50
2018-07-06T07:36:56.752Z,4.03
2018-07-06T07:39:28.118Z,3.90
2018-07-06T07:41:58.437Z,3.73
2018-07-06T07:44:29.992Z,3.77
2018-07-06T07:47:02.138Z,3.40
2018-07-06T07:49:36.187Z,3.93
2018-07-06T07:52:15.484Z,3.93
2018-07-06T07:54:58.373Z,3.80
2018-07-06T07:57:31.657Z,3.70
2018-07-06T08:00:02.822Z,5.17
2018-07-06T08:02:36.428Z,4.80
2018-07-06T08:05:08.221Z,5.10
2018-07-06T08:07:39.278Z,4.77
2018-07-06T08:10:12.039Z,4.80
2018-07-06T08:12:44.065Z,3.87
2018-07-06T08:15:16.152Z,3.60
2018-07-06T08:17:49.003Z,4.40
2018-07-06T08:20:21.614Z,4.40
2018-07-06T08:22:51.817Z,4.10
2018-07-06T08:25:23.537Z,5.30
2018-07-06T08:27:54.326Z,4.50
2018-07-06T08:30:27.580Z,4.63
2018-07-06T08:32:59.182Z,4.47
2018-07-06T08:35:36.989Z,4.30
2018-07-06T08:38:08.184Z,4.00
2018-07-06T08:40:41.404Z,3.87
2018-07-06T08:59:24.253Z,2.97
2018-07-06T09:01:55.108Z,4.00
2018-07-06T09:04:27.324Z,3.70
2018-07-06T09:07:00.742Z,3.50
2018-07-06T09:19:11.872Z,3.37
2018-07-06T09:21:44.107Z,3.80
2018-07-06T09:24:15.675Z,3.40
2018-07-06T09:26:47.313Z,3.50
2018-07-06T09:29:21.979Z,3.70
2018-07-06T09:31:52.355Z,3.23
2018-07-06T09:34:24.444Z,4.20
2018-07-06T09:36:56.496Z,3.40
2018-07-06T09:39:29.625Z,4.30
2018-07-06T09:42:00.352Z,3.77
2018-07-06T09:44:32.336Z,3.60
2018-07-06T09:47:04.572Z,3.40
2018-07-06T09:49:35.656Z,3.13
2018-07-06T09:52:07.408Z,2.97
2018-07-06T09:54:39.767Z,3.53
2018-07-06T09:57:10.769Z,3.30
2018-07-06T09:59:41.709Z,3.00
2018-07-06T10:15:08.307Z,2.60
2018-07-06T10:17:39.880Z,3.00
2018-07-06T10:20:12.208Z,3.63
2018-07-06T10:22:43.735Z,3.17
2018-07-06T10:25:16.408Z,3.40
2018-07-06T10:27:51.725Z,2.90
2018-07-06T10:30:25.623Z,3.17
2018-07-06T10:32:57.086Z,3.13
2018-07-06T10:35:29.714Z,2.90
2018-07-06T10:38:02.222Z,2.67
2018-07-06T10:40:34.709Z,3.10
2018-07-06T10:43:08.023Z,3.27
2018-07-06T10:58:34.757Z,2.73
2018-07-06T11:01:10.318Z,2.60
2018-07-06T11:03:43.066Z,2.60
2018-07-06T11:06:16.271Z,2.60
2018-07-06T11:14:40.598Z,2.73
2018-07-06T11:17:13.363Z,2.40
2018-07-06T11:19:45.970Z,3.03
2018-07-06T11:22:18.817Z,3.00
2018-07-06T11:24:50.670Z,2.90
2018-07-06T11:27:22.125Z,2.83
2018-07-06T11:29:55.059Z,2.90
2018-07-06T11:32:27.566Z,3.20
2018-07-06T11:35:00.542Z,2.83
2018-07-06T11:37:32.199Z,2.80
2018-07-06T11:40:01.879Z,2.87
2018-07-06T11:42:33.126Z,2.50
2018-07-06T11:45:04.143Z,2.50
2018-07-06T11:47:35.591Z,2.60
2018-07-06T11:50:10.906Z,2.70
2018-07-06T11:52:42.147Z,2.57
2018-07-06T11:55:14.253Z,2.83
2018-07-06T11:57:46.596Z,2.50
2018-07-06T12:00:17.722Z,2.43
2018-07-06T12:02:48.626Z,1.87
2018-07-06T12:05:18.734Z,2.40
2018-07-06T12:07:49.469Z,2.40
2018-07-06T12:10:23.509Z,2.23
2018-07-06T12:12:55.633Z,2.00
2018-07-06T12:15:29.006Z,2.20
2018-07-06T12:18:02.588Z,2.20
2018-07-06T12:20:35.219Z,2.23
2018-07-06T12:23:06.246Z,2.27
2018-07-06T12:25:38.493Z,2.87
2018-07-06T12:28:10.249Z,1.87
2018-07-06T12:30:40.976Z,1.70
2018-07-06T12:33:12.998Z,1.50
2018-07-06T12:35:45.322Z,1.90
2018-07-06T12:38:18.571Z,1.60
2018-07-06T12:40:49.291Z,1.90
2018-07-06T12:43:21.354Z,1.80
2018-07-06T12:45:52.850Z,1.57
2018-07-06T12:48:25.891Z,1.37
2018-07-06T12:50:57.245Z,1.70
2018-07-06T12:53:35.655Z,1.90
2018-07-06T12:56:08.137Z,1.67
2018-07-06T12:58:42.265Z,1.67
2018-07-06T13:01:12.621Z,1.77
2018-07-06T13:03:43.347Z,1.70
2018-07-06T13:06:16.647Z,1.30
2018-07-06T13:08:49.047Z,1.77
2018-07-06T13:11:19.788Z,1.60
2018-07-06T13:13:52.778Z,1.37
2018-07-06T13:16:25.739Z,1.53
2018-07-06T13:18:57.435Z,1.40
2018-07-06T13:21:29.779Z,1.73
2018-07-06T13:24:01.857Z,1.80
2018-07-06T13:26:33.491Z,1.30
2018-07-06T13:29:04.222Z,1.47
2018-07-06T13:31:34.683Z,1.80
2018-07-06T13:34:07.920Z,1.50
2018-07-06T13:36:40.972Z,1.47
2018-07-06T13:39:11.315Z,1.20
2018-07-06T13:41:41.630Z,1.00
2018-07-06T13:44:13.614Z,1.30
2018-07-06T13:46:45.642Z,1.87
2018-07-06T13:49:19.336Z,1.70
2018-07-06T13:51:52.750Z,1.80
2018-07-06T14:00:09.187Z,1.07
2018-07-06T14:02:41.923Z,1.47
2018-07-06T14:05:18.474Z,1.30
2018-07-06T14:08:00.238Z,1.50
2018-07-06T14:10:40.937Z,0.87
2018-07-06T14:13:12.809Z,1.37
2018-07-06T14:15:45.783Z,1.40
2018-07-06T14:18:17.942Z,1.27
2018-07-06T14:20:49.969Z,0.93
2018-07-06T14:23:22.665Z,1.33
2018-07-06T14:25:54.545Z,1.30
2018-07-06T14:28:25.925Z,1.23
2018-07-06T14:31:00.222Z,1.10
2018-07-06T14:33:35.366Z,1.23
2018-07-06T14:36:06.241Z,1.20
2018-07-06T14:38:37.548Z,0.97
2018-07-06T14:41:08.469Z,1.20
2018-07-06T14:43:40.701Z,1.10
2018-07-06T14:46:15.193Z,1.00
2018-07-06T14:48:46.935Z,1.10
2018-07-06T14:51:18.207Z,0.93
2018-07-06T14:53:50.944Z,1.20
2018-07-06T14:56:24.249Z,1.10
2018-07-06T14:58:57.229Z,1.37
2018-07-06T15:01:29.977Z,0.90
2018-07-06T15:04:04.414Z,1.17
2018-07-06T15:06:40.301Z,1.10
2018-07-06T15:09:11.563Z,1.07
2018-07-06T15:11:42.751Z,1.00
2018-07-06T15:14:14.706Z,0.70
2018-07-06T15:16:47.000Z,1.30
2018-07-06T15:19:18.295Z,1.03
2018-07-06T15:31:27.573Z,1.00
2018-07-06T15:33:57.269Z,0.87
2018-07-06T15:36:27.423Z,1.40
2018-07-06T15:38:58.378Z,0.90
2018-07-06T15:41:31.394Z,1.10
2018-07-06T15:44:02.749Z,1.30
2018-07-06T15:46:35.800Z,1.03
2018-07-06T15:49:10.679Z,1.20
2018-07-06T15:51:43.346Z,1.13
2018-07-06T15:54:13.537Z,0.90
2018-07-06T15:56:43.014Z,1.10
2018-07-06T15:59:13.882Z,1.13
2018-07-06T16:01:43.464Z,1.10
2018-07-06T16:04:12.979Z,1.30
2018-07-06T16:06:44.570Z,1.10
2018-07-06T16:09:14.811Z,1.43
2018-07-06T16:11:44.527Z,1.57
2018-07-06T16:14:15.844Z,1.20
2018-07-06T16:16:47.686Z,1.07
2018-07-06T16:19:18.229Z,1.33
2018-07-06T16:21:47.751Z,1.20
2018-07-06T16:24:17.829Z,1.40
2018-07-06T16:26:49.202Z,1.30
2018-07-06T16:29:19.258Z,1.00
2018-07-06T16:31:49.348Z,1.03
2018-07-06T16:34:19.549Z,1.10
2018-07-06T16:36:50.015Z,1.20
2018-07-06T16:39:20.297Z,1.43
2018-07-06T16:41:50.385Z,1.07
2018-07-06T16:44:23.589Z,1.07
2018-07-06T16:46:53.659Z,1.13
2018-07-06T16:49:23.935Z,1.30
2018-07-06T16:51:55.485Z,1.20
2018-07-06T16:54:27.859Z,1.13
2018-07-06T17:00:02.168Z,1.57
2018-07-06T17:02:33.851Z,1.67
2018-07-06T17:05:06.686Z,1.40
2018-07-06T17:07:40.488Z,1.10
2018-07-06T17:10:11.044Z,1.40
2018-07-06T17:12:41.487Z,1.50
2018-07-06T17:15:15.087Z,1.40
2018-07-06T17:17:49.875Z,1.67
2018-07-06T17:20:21.456Z,1.33
2018-07-06T17:22:51.600Z,1.20
2018-07-06T17:25:23.763Z,1.03
2018-07-06T17:27:54.109Z,1.20
2018-07-06T17:30:25.149Z,1.17
2018-07-06T17:32:58.111Z,1.17
2018-07-06T17:35:29.609Z,1.10
2018-07-06T17:38:00.002Z,0.90
2018-07-06T17:40:30.793Z,1.30
2018-07-06T17:43:00.327Z,1.70
2018-07-06T17:45:30.887Z,1.27
2018-07-06T17:48:01.810Z,1.37
2018-07-06T17:50:32.419Z,1.13
2018-07-06T17:53:02.886Z,1.37
2018-07-06T17:55:33.425Z,1.33
2018-07-06T17:58:03.924Z,1.27
2018-07-06T18:00:35.097Z,0.90
2018-07-06T18:03:06.496Z,1.77
2018-07-06T18:05:37.829Z,1.20
2018-07-06T18:08:11.212Z,1.23
2018-07-06T18:10:41.540Z,1.17
2018-07-06T18:13:12.474Z,1.57
2018-07-06T18:15:42.897Z,1.33
2018-07-06T18:18:14.005Z,1.00
2018-07-06T18:20:45.725Z,1.00
2018-07-06T18:23:16.541Z,1.30
2018-07-06T18:25:48.476Z,0.90
2018-07-06T18:28:18.769Z,1.20
2018-07-06T18:30:49.353Z,1.20
2018-07-06T18:33:18.493Z,1.00
2018-07-06T18:35:48.865Z,1.00
2018-07-06T18:38:19.021Z,1.03
2018-07-06T18:40:49.261Z,1.27
2018-07-06T18:43:18.727Z,1.37
2018-07-06T18:45:48.946Z,0.80
2018-07-06T18:48:19.784Z,1.27
2018-07-06T18:50:49.652Z,1.10
2018-07-06T18:53:22.069Z,1.53
2018-07-06T18:55:51.884Z,1.87
2018-07-06T18:58:22.906Z,2.03
2018-07-06T19:00:53.860Z,2.10
2018-07-06T19:03:23.130Z,2.03
2018-07-06T19:05:52.982Z,1.10
2018-07-06T19:08:23.430Z,1.20
2018-07-06T19:10:54.044Z,1.20
2018-07-06T19:13:24.652Z,1.13
2018-07-06T19:15:56.065Z,1.50
2018-07-06T19:18:26.598Z,1.50
2018-07-06T19:20:57.263Z,1.23
2018-07-06T19:23:28.126Z,1.03
2018-07-06T19:25:57.456Z,2.00
2018-07-06T19:28:27.180Z,1.97
2018-07-06T19:30:58.128Z,0.90
2018-07-06T19:33:29.121Z,1.60
2018-07-06T19:35:58.472Z,1.10
2018-07-06T19:38:27.917Z,2.30
2018-07-06T19:40:58.044Z,1.10
2018-07-06T19:43:28.907Z,1.00
2018-07-06T19:45:59.126Z,1.10
2018-07-06T19:48:28.513Z,1.57
2018-07-06T19:50:59.076Z,1.10
2018-07-06T19:53:29.472Z,1.20
2018-07-06T19:56:00.610Z,1.53
2018-07-06T19:58:31.924Z,1.83
2018-07-06T20:01:03.069Z,1.83
2018-07-06T20:03:31.999Z,1.60
2018-07-06T20:06:01.352Z,1.10
2018-07-06T20:08:31.711Z,1.07
2018-07-06T20:11:02.053Z,0.93
2018-07-06T20:13:32.353Z,0.90
2018-07-06T20:16:12.125Z,2.03
2018-07-06T20:18:48.720Z,1.13
2018-07-06T20:21:30.026Z,1.57
2018-07-06T20:24:04.209Z,1.17
2018-07-06T20:26:45.733Z,1.20
2018-07-06T20:29:23.933Z,4.13
2018-07-06T20:31:58.648Z,1.63
2018-07-06T20:34:30.150Z,1.73
2018-07-06T20:37:01.486Z,1.20
2018-07-06T20:39:32.674Z,1.23
2018-07-06T20:42:02.938Z,2.03
2018-07-06T20:47:29.936Z,1.53
2018-07-06T20:49:59.901Z,1.63
2018-07-06T20:52:30.137Z,1.30
2018-07-06T20:55:00.514Z,0.90
2018-07-06T20:57:30.372Z,1.30
2018-07-06T20:59:59.899Z,1.07
2018-07-06T21:02:29.646Z,1.27
2018-07-06T21:05:00.344Z,0.90
2018-07-06T21:07:30.103Z,1.10
2018-07-06T21:09:59.871Z,1.43
2018-07-06T21:12:30.117Z,1.10
2018-07-06T21:15:00.333Z,1.10
2018-07-06T21:17:31.174Z,1.07
2018-07-06T21:20:01.169Z,1.10
2018-07-06T21:22:30.847Z,1.27
2018-07-06T21:25:01.710Z,1.10
2018-07-06T21:27:31.188Z,1.10
2018-07-06T21:30:00.570Z,1.00
2018-07-06T21:32:30.018Z,0.80
2018-07-06T21:34:58.308Z,1.30
2018-07-06T21:37:27.099Z,1.30
2018-07-06T21:39:55.843Z,1.70
2018-07-06T21:42:25.433Z,1.43
2018-07-06T21:44:53.910Z,1.50
2018-07-06T21:47:23.446Z,1.20
2018-07-06T21:49:52.180Z,1.07
2018-07-06T21:52:22.707Z,1.23
2018-07-06T21:54:51.030Z,1.17
2018-07-06T21:57:20.842Z,1.23
2018-07-06T21:59:50.338Z,1.17
2018-07-06T22:02:20.026Z,1.20
2018-07-06T22:04:50.626Z,1.23
2018-07-06T22:07:24.177Z,1.20
2018-07-06T22:09:53.294Z,1.10
2018-07-06T22:12:24.349Z,1.10
2018-07-06T22:14:53.815Z,1.07
2018-07-06T22:17:23.258Z,0.97
2018-07-06T22:19:52.488Z,1.00
2018-07-06T22:22:22.436Z,1.00
2018-07-06T22:24:54.370Z,1.03
2018-07-06T22:27:25.487Z,1.10
2018-07-06T22:29:55.266Z,1.77
2018-07-06T22:32:25.306Z,1.60
2018-07-06T22:34:54.240Z,1.40
2018-07-06T22:37:23.338Z,1.20
2018-07-06T22:39:52.258Z,1.07
2018-07-06T22:42:21.304Z,1.00
2018-07-06T22:44:50.448Z,1.40
2018-07-06T22:47:19.981Z,1.17
2018-07-06T22:49:48.877Z,1.20
2018-07-06T22:52:18.884Z,1.23
2018-07-06T22:54:48.255Z,1.00
2018-07-06T22:57:18.092Z,0.90
2018-07-06T22:59:46.763Z,1.60
2018-07-06T23:02:15.830Z,0.97
2018-07-06T23:04:45.530Z,1.07
2018-07-06T23:07:13.957Z,1.40
2018-07-06T23:09:42.220Z,1.17
2018-07-06T23:12:12.028Z,1.23
2018-07-06T23:14:40.421Z,1.80
2018-07-06T23:17:10.072Z,1.30
2018-07-06T23:19:39.475Z,1.40
2018-07-06T23:22:09.976Z,2.27
2018-07-06T23:24:39.271Z,1.17
2018-07-06T23:27:08.332Z,1.30
2018-07-06T23:29:37.393Z,1.43
2018-07-06T23:32:06.622Z,0.90
2018-07-06T23:34:35.077Z,1.57
2018-07-06T23:37:04.339Z,1.00
2018-07-06T23:39:34.532Z,1.30
2018-07-06T23:42:03.450Z,1.67
2018-07-06T23:44:32.905Z,1.50
2018-07-06T23:47:02.021Z,1.10
2018-07-06T23:49:30.656Z,1.03
2018-07-06T23:52:00.204Z,1.67
2018-07-06T23:54:30.089Z,0.90
2018-07-06T23:59:44.474Z,1.90
